createdAt,value
2023-01-22T03:43:29.857Z,3.47
2023-01-22T03:46:02.463Z,3.90
2023-01-22T03:48:30.849Z,3.47
2023-01-22T03:50:59.002Z,4.27
2023-01-22T03:53:26.758Z,4.97
2023-01-22T03:56:12.858Z,2.80
2023-01-22T03:58:42.642Z,3.40
2023-01-22T04:01:12.933Z,2.70
2023-01-22T04:03:41.445Z,4.28
2023-01-22T04:06:11.283Z,4.87
2023-01-22T04:08:40.649Z,4.67
2023-01-22T04:11:08.621Z,3.07
2023-01-22T04:13:37.750Z,2.70
2023-01-22T04:16:08.420Z,3.60
2023-01-22T04:18:36.347Z,3.77
2023-01-22T04:21:04.569Z,3.93
2023-01-22T04:23:32.588Z,3.80
2023-01-22T04:26:00.505Z,4.37
2023-01-22T04:28:28.207Z,4.93
2023-01-22T04:30:56.702Z,4.22
2023-01-22T04:33:26.198Z,4.67
2023-01-22T04:35:55.797Z,5.30
2023-01-22T04:38:23.872Z,4.90
2023-01-22T04:40:51.680Z,4.33
2023-01-22T04:43:19.385Z,4.83
2023-01-22T04:45:47.210Z,4.53
2023-01-22T04:48:15.024Z,5.47
2023-01-22T04:50:45.668Z,7.53
2023-01-22T04:53:14.414Z,5.30
2023-01-22T04:55:43.503Z,5.70
2023-01-22T04:58:11.288Z,5.43
2023-01-22T05:00:39.142Z,4.33
2023-01-22T05:03:07.184Z,6.23
2023-01-22T05:05:35.204Z,4.67
2023-01-22T05:08:04.431Z,5.47
2023-01-22T05:10:32.552Z,4.73
2023-01-22T05:13:04.276Z,5.33
2023-01-22T05:15:32.298Z,5.33
2023-01-22T05:18:00.303Z,5.93
2023-01-22T05:20:28.314Z,6.67
2023-01-22T05:22:56.227Z,6.53
2023-01-22T05:25:25.551Z,5.47
2023-01-22T05:27:53.292Z,5.33
2023-01-22T05:30:21.261Z,8.30
2023-01-22T05:32:49.122Z,6.87
2023-01-22T05:35:17.053Z,4.50
2023-01-22T05:37:44.832Z,5.90
2023-01-22T05:40:13.851Z,7.40
2023-01-22T05:42:42.960Z,7.60
2023-01-22T05:45:11.707Z,6.33
2023-01-22T05:47:39.761Z,5.27
2023-01-22T05:50:08.228Z,6.63
2023-01-22T05:52:36.050Z,6.83
2023-01-22T05:55:04.026Z,6.37
2023-01-22T05:57:35.161Z,7.53
2023-01-22T06:00:05.878Z,7.10
2023-01-22T06:02:33.702Z,5.73
2023-01-22T06:05:01.633Z,6.17
2023-01-22T06:07:31.157Z,7.67
2023-01-22T06:09:59.109Z,6.07
2023-01-22T06:12:26.996Z,7.37
2023-01-22T06:14:55.203Z,8.10
2023-01-22T06:17:25.055Z,4.90
2023-01-22T06:19:52.822Z,8.73
2023-01-22T06:22:20.622Z,6.93
2023-01-22T06:24:48.530Z,7.90
2023-01-22T06:27:16.281Z,6.20
2023-01-22T06:29:44.068Z,8.82
2023-01-22T06:32:12.050Z,7.95
2023-01-22T06:34:41.269Z,6.67
2023-01-22T06:37:08.991Z,7.00
2023-01-22T06:39:36.763Z,6.03
2023-01-22T06:42:04.795Z,6.45
2023-01-22T06:44:32.667Z,7.53
2023-01-22T06:47:00.536Z,8.97
2023-01-22T06:49:28.508Z,7.30
2023-01-22T06:51:57.724Z,6.28
2023-01-22T06:54:25.678Z,6.72
2023-01-22T06:56:53.543Z,7.17
2023-01-22T06:59:21.387Z,7.67
2023-01-22T07:01:49.303Z,10.38
2023-01-22T07:04:17.131Z,4.60
2023-01-22T07:06:45.254Z,8.25
2023-01-22T07:09:14.445Z,8.80
2023-01-22T07:11:45.065Z,6.53
2023-01-22T07:14:12.913Z,7.72
2023-01-22T07:16:40.946Z,9.05
2023-01-22T07:19:08.957Z,9.65
2023-01-22T07:21:36.739Z,9.07
2023-01-22T07:24:04.851Z,9.43
2023-01-22T07:26:34.559Z,9.77
2023-01-22T07:29:03.420Z,11.40
2023-01-22T07:31:31.772Z,11.80
2023-01-22T07:34:02.933Z,8.77
2023-01-22T07:36:30.899Z,9.27
2023-01-22T07:38:58.781Z,8.98
2023-01-22T07:41:27.071Z,10.63
2023-01-22T07:43:57.650Z,9.30
2023-01-22T07:46:25.726Z,10.47
2023-01-22T07:48:53.809Z,8.63
2023-01-22T07:51:27.313Z,10.17
2023-01-22T07:53:56.094Z,8.33
2023-01-22T07:56:24.372Z,5.97
2023-01-22T07:58:52.303Z,6.97
2023-01-22T08:01:24.339Z,11.23
2023-01-22T08:03:52.373Z,11.13
2023-01-22T08:06:21.361Z,10.13
2023-01-22T08:08:49.121Z,9.50
2023-01-22T08:11:17.379Z,8.53
2023-01-22T08:13:45.295Z,6.70
2023-01-22T08:16:13.210Z,8.50
2023-01-22T08:18:42.601Z,5.57
2023-01-22T08:21:10.424Z,8.03
2023-01-22T08:23:38.503Z,5.77
2023-01-22T08:26:06.555Z,7.17
2023-01-22T08:28:34.548Z,5.53
2023-01-22T08:31:04.805Z,6.93
2023-01-22T08:33:34.450Z,9.17
2023-01-22T08:36:03.783Z,7.60
2023-01-22T08:38:31.946Z,9.87
2023-01-22T08:41:00.834Z,8.30
2023-01-22T08:43:30.008Z,8.23
2023-01-22T08:45:57.941Z,10.27
2023-01-22T08:48:25.785Z,8.03
2023-01-22T08:50:53.787Z,7.83
2023-01-22T08:53:23.093Z,6.93
2023-01-22T08:55:51.247Z,7.80
2023-01-22T08:58:21.554Z,7.90
2023-01-22T09:00:52.492Z,7.10
2023-01-22T09:03:20.364Z,8.87
2023-01-22T09:05:57.987Z,8.53
2023-01-22T09:08:27.395Z,8.73
2023-01-22T09:10:55.268Z,10.17
2023-01-22T09:13:23.091Z,10.07
2023-01-22T09:15:50.919Z,7.93
2023-01-22T09:18:18.769Z,8.73
2023-01-22T09:20:46.743Z,8.87
2023-01-22T09:23:15.658Z,7.97
2023-01-22T09:25:46.862Z,9.87
2023-01-22T09:28:17.228Z,7.43
2023-01-22T09:30:45.238Z,9.80
2023-01-22T09:33:13.348Z,10.87
2023-01-22T09:35:41.203Z,10.13
2023-01-22T09:38:13.757Z,9.93
2023-01-22T09:40:46.580Z,10.80
2023-01-22T09:43:26.625Z,9.57
2023-01-22T09:45:57.017Z,11.33
2023-01-22T09:48:30.495Z,9.97
2023-01-22T09:50:58.275Z,9.43
2023-01-22T09:53:26.586Z,8.47
2023-01-22T09:55:57.713Z,7.33
2023-01-22T09:58:27.545Z,10.43
2023-01-22T10:01:00.978Z,9.87
2023-01-22T10:03:35.737Z,11.80
2023-01-22T10:06:10.544Z,12.20
2023-01-22T10:08:45.839Z,9.00
2023-01-22T10:11:15.311Z,8.53
2023-01-22T10:13:43.327Z,10.50
2023-01-22T10:16:13.161Z,9.00
2023-01-22T10:18:46.074Z,8.77
2023-01-22T10:21:22.233Z,9.50
2023-01-22T10:23:50.792Z,10.13
2023-01-22T10:26:25.267Z,12.37
2023-01-22T10:28:57.906Z,13.07
2023-01-22T10:31:28.579Z,10.33
2023-01-22T10:33:58.840Z,10.47
2023-01-22T10:36:28.262Z,9.97
2023-01-22T10:39:13.574Z,10.03
2023-01-22T10:41:43.762Z,11.30
2023-01-22T10:44:19.948Z,8.80
2023-01-22T10:46:51.596Z,9.93
2023-01-22T10:49:22.062Z,9.90
2023-01-22T10:51:55.487Z,9.27
2023-01-22T10:54:30.512Z,9.50
2023-01-22T10:57:08.453Z,11.93
2023-01-22T10:59:36.710Z,9.73
2023-01-22T11:02:14.756Z,10.47
2023-01-22T11:04:42.838Z,11.27
2023-01-22T11:07:16.191Z,12.07
2023-01-22T11:09:50.283Z,9.37
2023-01-22T11:12:23.953Z,9.23
2023-01-22T11:15:02.659Z,10.03
2023-01-22T11:17:35.408Z,10.10
2023-01-22T11:20:12.719Z,8.93
2023-01-22T11:22:44.505Z,10.93
2023-01-22T11:25:13.264Z,14.47
2023-01-22T11:28:03.640Z,9.50
2023-01-22T11:30:49.048Z,9.60
2023-01-22T11:33:52.446Z,10.40
2023-01-22T11:36:25.466Z,10.97
2023-01-22T11:38:57.532Z,10.93
2023-01-22T11:41:47.696Z,11.30
2023-01-22T11:44:47.672Z,10.30
2023-01-22T11:47:43.902Z,11.83
2023-01-22T11:50:26.549Z,9.67
2023-01-22T11:53:08.621Z,9.83
2023-01-22T11:55:56.691Z,10.07
2023-01-22T11:58:35.178Z,11.60
2023-01-22T12:01:16.277Z,10.13
2023-01-22T12:04:14.422Z,10.13
2023-01-22T12:07:03.369Z,7.60
2023-01-22T12:09:37.567Z,10.87
2023-01-22T12:12:22.056Z,11.90
2023-01-22T12:15:05.867Z,11.13
2023-01-22T12:17:46.444Z,9.57
2023-01-22T12:20:30.062Z,10.17
2023-01-22T12:23:03.133Z,12.80
2023-01-22T12:25:38.291Z,9.20
2023-01-22T12:28:14.655Z,9.63
2023-01-22T12:30:52.969Z,11.77
2023-01-22T12:33:30.067Z,12.07
2023-01-22T12:36:03.793Z,9.67
2023-01-22T12:38:40.703Z,10.10
2023-01-22T12:41:19.435Z,10.10
2023-01-22T12:43:53.226Z,10.63
2023-01-22T12:46:29.221Z,11.17
2023-01-22T12:49:06.653Z,12.30
2023-01-22T12:51:41.032Z,13.83
2023-01-22T12:54:20.724Z,9.80
2023-01-22T12:56:49.364Z,9.63
2023-01-22T12:59:49.460Z,11.63
2023-01-22T13:02:35.785Z,13.40
2023-01-22T13:05:20.705Z,11.33
2023-01-22T13:07:49.666Z,9.67
2023-01-22T13:10:29.303Z,11.83
2023-01-22T13:13:01.031Z,9.37
2023-01-22T13:15:35.556Z,8.57
2023-01-22T13:18:07.950Z,13.50
2023-01-22T13:20:47.771Z,14.60
2023-01-22T13:23:16.948Z,11.53
2023-01-22T13:25:44.824Z,12.40
2023-01-22T13:28:18.756Z,12.47
2023-01-22T13:30:56.955Z,7.97
2023-01-22T13:33:25.087Z,15.73
2023-01-22T13:35:54.576Z,13.03
2023-01-22T13:38:25.332Z,14.20
2023-01-22T13:41:00.707Z,15.00
2023-01-22T13:43:29.504Z,10.37
2023-01-22T13:45:59.688Z,9.47
2023-01-22T13:48:27.887Z,12.37
2023-01-22T13:51:00.116Z,15.67
2023-01-22T13:53:31.863Z,14.90
2023-01-22T13:56:01.283Z,12.57
2023-01-22T13:58:49.214Z,17.17
2023-01-22T14:01:30.043Z,15.93
2023-01-22T14:04:02.734Z,13.73
2023-01-22T14:06:44.660Z,15.57
2023-01-22T14:09:12.747Z,14.43
2023-01-22T14:11:41.480Z,14.50
2023-01-22T14:14:17.111Z,14.00
2023-01-22T14:16:48.529Z,14.83
2023-01-22T14:19:16.631Z,18.27
2023-01-22T14:21:45.962Z,12.53
2023-01-22T14:24:14.041Z,18.40
2023-01-22T14:26:47.058Z,17.73
2023-01-22T14:29:15.652Z,15.03
2023-01-22T14:31:45.683Z,11.87
2023-01-22T14:34:16.567Z,17.33
2023-01-22T14:36:48.144Z,17.03
2023-01-22T14:39:20.102Z,13.60
2023-01-22T14:41:50.092Z,19.10
2023-01-22T14:44:18.438Z,18.43
2023-01-22T14:46:49.719Z,16.33
2023-01-22T14:49:20.916Z,20.40
2023-01-22T14:51:50.118Z,16.60
2023-01-22T14:54:17.919Z,17.67
2023-01-22T14:56:47.472Z,21.37
2023-01-22T14:59:15.464Z,23.17
2023-01-22T15:01:43.345Z,16.17
2023-01-22T15:04:11.237Z,17.80
2023-01-22T15:06:39.087Z,23.83
2023-01-22T15:09:09.634Z,22.53
2023-01-22T15:11:37.442Z,23.83
2023-01-22T15:14:05.670Z,13.27
2023-01-22T15:16:33.629Z,19.03
2023-01-22T15:19:02.824Z,24.37
2023-01-22T15:21:30.914Z,15.33
2023-01-22T15:23:59.150Z,21.23
2023-01-22T15:26:31.953Z,17.17
2023-01-22T15:28:59.893Z,22.10
2023-01-22T15:31:27.801Z,16.43
2023-01-22T15:33:57.629Z,19.33
2023-01-22T15:36:25.944Z,19.53
2023-01-22T15:38:53.927Z,15.50
2023-01-22T15:41:23.177Z,18.10
2023-01-22T15:43:53.844Z,19.13
2023-01-22T15:46:23.493Z,16.90
2023-01-22T15:48:51.805Z,20.63
2023-01-22T15:51:20.167Z,21.63
2023-01-22T15:53:50.686Z,20.33
2023-01-22T15:56:18.883Z,17.73
2023-01-22T15:58:46.791Z,26.03
2023-01-22T16:01:16.112Z,18.33
2023-01-22T16:03:43.951Z,19.97
2023-01-22T16:06:13.092Z,17.47
2023-01-22T16:08:42.655Z,20.77
2023-01-22T16:11:11.221Z,23.77
2023-01-22T16:13:41.085Z,26.13
2023-01-22T16:16:17.265Z,23.90
2023-01-22T16:18:45.935Z,17.70
2023-01-22T16:21:14.621Z,18.10
2023-01-22T16:23:43.809Z,19.20
2023-01-22T16:26:14.859Z,19.83
2023-01-22T16:28:43.259Z,23.20
2023-01-22T16:31:13.273Z,21.67
2023-01-22T16:33:44.209Z,23.00
2023-01-22T16:36:14.936Z,23.40
2023-01-22T16:38:43.901Z,21.67
2023-01-22T16:41:24.935Z,19.80
2023-01-22T16:43:55.085Z,18.07
2023-01-22T16:46:24.580Z,19.17
2023-01-22T16:48:59.301Z,19.90
2023-01-22T16:51:28.934Z,20.17
2023-01-22T16:53:56.886Z,19.80
2023-01-22T16:56:24.862Z,18.70
2023-01-22T16:58:52.741Z,22.00
2023-01-22T17:01:21.103Z,21.83
2023-01-22T17:03:48.976Z,22.30
2023-01-22T17:06:27.289Z,23.23
2023-01-22T17:08:58.352Z,20.17
2023-01-22T17:11:26.454Z,21.33
2023-01-22T17:13:55.292Z,18.73
2023-01-22T17:16:26.612Z,21.07
2023-01-22T17:18:54.905Z,19.43
2023-01-22T17:21:24.007Z,20.70
2023-01-22T17:23:53.744Z,21.63
2023-01-22T17:26:24.280Z,20.87
2023-01-22T17:28:55.914Z,19.60
2023-01-22T17:31:24.598Z,104.47
2023-01-22T17:33:55.244Z,21.40
2023-01-22T17:36:25.249Z,14.47
2023-01-22T17:38:53.611Z,16.40
2023-01-22T17:41:24.050Z,14.50
2023-01-22T17:43:52.858Z,18.50
2023-01-22T17:46:22.824Z,15.70
2023-01-22T17:48:52.265Z,21.67
2023-01-22T17:51:22.068Z,16.30
2023-01-22T17:53:52.598Z,19.07
2023-01-22T17:56:26.322Z,17.10
2023-01-22T17:58:56.330Z,20.20
2023-01-22T18:01:27.870Z,19.87
2023-01-22T18:03:57.619Z,21.03
2023-01-22T18:06:25.678Z,18.50
2023-01-22T18:08:55.476Z,19.77
2023-01-22T18:11:28.010Z,21.40
2023-01-22T18:13:57.534Z,15.37
2023-01-22T18:16:27.899Z,31.33
2023-01-22T18:18:56.969Z,18.07
2023-01-22T18:21:25.405Z,18.73
2023-01-22T18:23:54.805Z,25.20
2023-01-22T18:26:25.473Z,23.63
2023-01-22T18:28:55.969Z,17.33
2023-01-22T18:31:26.490Z,17.70
2023-01-22T18:33:55.768Z,32.73
2023-01-22T18:36:26.692Z,21.33
2023-01-22T18:38:59.277Z,16.60
2023-01-22T18:41:28.241Z,23.37
2023-01-22T18:43:57.464Z,19.10
2023-01-22T18:46:26.561Z,17.00
2023-01-22T18:48:56.565Z,19.00
2023-01-22T18:51:25.274Z,17.43
2023-01-22T18:53:55.190Z,17.83
2023-01-22T18:56:24.534Z,18.60
2023-01-22T18:58:54.949Z,18.90
2023-01-22T19:01:24.684Z,17.00
2023-01-22T19:03:54.595Z,20.23
2023-01-22T19:06:26.146Z,18.90
2023-01-22T19:08:58.485Z,17.40
2023-01-22T19:11:27.005Z,20.27
2023-01-22T19:13:56.219Z,17.60
2023-01-22T19:16:25.251Z,18.20
2023-01-22T19:18:55.754Z,23.77
2023-01-22T19:21:24.629Z,16.83
2023-01-22T19:23:57.413Z,17.57
2023-01-22T19:26:27.343Z,16.00
2023-01-22T19:28:58.493Z,15.93
2023-01-22T19:31:28.366Z,16.10
2023-01-22T19:33:57.430Z,16.27
2023-01-22T19:36:53.035Z,16.87
2023-01-22T19:39:22.573Z,17.00
2023-01-22T19:41:50.570Z,16.17
2023-01-22T19:44:18.895Z,16.30
2023-01-22T19:46:48.358Z,14.93
2023-01-22T19:49:16.413Z,14.50
2023-01-22T19:51:44.371Z,20.17
2023-01-22T19:54:12.946Z,15.27
2023-01-22T19:56:45.762Z,12.87
2023-01-22T19:59:16.016Z,15.63
2023-01-22T20:01:46.491Z,16.97
2023-01-22T20:04:20.572Z,13.33
2023-01-22T20:06:51.000Z,13.30
2023-01-22T20:09:21.846Z,15.47
2023-01-22T20:11:55.598Z,16.20
2023-01-22T20:14:25.245Z,19.27
2023-01-22T20:16:53.962Z,16.10
2023-01-22T20:19:21.867Z,14.80
2023-01-22T20:21:49.798Z,13.73
2023-01-22T20:24:17.802Z,23.13
2023-01-22T20:26:45.724Z,15.57
2023-01-22T20:29:15.163Z,19.07
2023-01-22T20:31:44.316Z,16.20
2023-01-22T20:34:12.423Z,15.93
2023-01-22T20:36:40.385Z,15.70
2023-01-22T20:39:10.030Z,17.50
2023-01-22T20:41:37.923Z,15.73
2023-01-22T20:44:06.497Z,16.73
2023-01-22T20:46:37.467Z,16.53
2023-01-22T20:49:05.384Z,14.83
2023-01-22T20:51:35.505Z,16.23
2023-01-22T20:54:08.307Z,16.37
2023-01-22T20:56:39.555Z,18.63
2023-01-22T20:59:16.355Z,13.17
2023-01-22T21:01:46.111Z,17.67
2023-01-22T21:04:17.922Z,20.30
2023-01-22T21:06:49.410Z,14.23
2023-01-22T21:09:19.287Z,18.57
2023-01-22T21:11:48.401Z,20.50
2023-01-22T21:14:19.855Z,18.97
2023-01-22T21:16:49.187Z,19.67
2023-01-22T21:19:23.518Z,19.37
2023-01-22T21:21:52.514Z,21.13
2023-01-22T21:24:22.186Z,23.07
2023-01-22T21:26:50.372Z,20.03
2023-01-22T21:29:20.662Z,22.40
2023-01-22T21:31:54.140Z,17.80
2023-01-22T21:34:23.948Z,18.97
2023-01-22T21:36:54.188Z,20.27
2023-01-22T21:39:25.158Z,17.80
2023-01-22T21:42:13.125Z,22.50
2023-01-22T21:45:00.336Z,19.23
2023-01-22T21:47:33.021Z,20.87
2023-01-22T21:50:01.378Z,20.23
2023-01-22T21:52:29.279Z,24.27
2023-01-22T21:54:59.562Z,19.77
2023-01-22T21:57:27.686Z,21.10
2023-01-22T21:59:55.595Z,19.20
2023-01-22T22:02:23.543Z,16.00
2023-01-22T22:04:52.861Z,19.47
2023-01-22T22:07:20.753Z,21.33
2023-01-22T22:09:50.804Z,17.63
2023-01-22T22:12:21.080Z,25.67
2023-01-22T22:14:50.884Z,21.40
2023-01-22T22:17:21.102Z,19.23
2023-01-22T22:19:58.845Z,25.27
2023-01-22T22:22:26.615Z,22.40
2023-01-22T22:24:54.516Z,21.17
2023-01-22T22:27:22.400Z,17.00
2023-01-22T22:29:53.203Z,20.07
2023-01-22T22:32:32.731Z,18.87
2023-01-22T22:35:02.123Z,19.60
2023-01-22T22:37:37.139Z,21.17
2023-01-22T22:40:06.028Z,19.07
2023-01-22T22:42:33.960Z,23.10
2023-01-22T22:45:01.878Z,22.57
2023-01-22T22:47:29.722Z,21.50
2023-01-22T22:49:57.728Z,18.90
2023-01-22T22:52:26.995Z,23.93
2023-01-22T22:54:54.836Z,25.60
2023-01-22T22:57:22.684Z,21.93
2023-01-22T22:59:50.581Z,19.77
2023-01-22T23:02:18.516Z,21.77
2023-01-22T23:04:46.510Z,19.80
2023-01-22T23:07:14.423Z,28.30
2023-01-22T23:09:43.716Z,23.40
2023-01-22T23:12:11.437Z,21.73
2023-01-22T23:14:39.217Z,19.63
2023-01-22T23:17:06.998Z,24.17
2023-01-22T23:19:34.824Z,22.77
2023-01-22T23:22:02.792Z,23.03
2023-01-22T23:24:31.761Z,22.33
2023-01-22T23:27:01.106Z,21.03
2023-01-22T23:29:29.444Z,22.20
2023-01-22T23:31:57.640Z,21.13
2023-01-22T23:34:25.593Z,23.63
2023-01-22T23:36:53.320Z,21.93
2023-01-22T23:39:22.538Z,21.60
2023-01-22T23:41:50.708Z,20.13
2023-01-22T23:44:19.928Z,19.70
2023-01-22T23:46:47.715Z,21.50
2023-01-22T23:49:15.530Z,21.53
2023-01-22T23:51:44.718Z,24.83
2023-01-22T23:54:12.563Z,18.70
2023-01-22T23:56:40.509Z,19.30
2023-01-22T23:59:08.416Z,23.43
